Impacts METAR Board
IDs:

KIAH - Houston/Bush Intl, TX, US

Updated at: 1700 UTC 23 Jul 2018
Potential Impact None Slight Moderate High
Time 23/05Z 23/06Z 23/07Z 23/08Z 23/09Z 23/10Z 23/11Z 23/12Z 23/13Z 23/14Z 23/15Z 23/16Z 23/17Z
Temp85 83 82 82 81 81 81 80 81 83 87 90 93
Dewpt74 74 76 78 78 78 77 77 77 74 74 74 73
Altim29.89 29.88 29.86 29.86 29.86 29.87 29.88 29.89 29.90 29.90 29.91 29.92 29.91
VIS10 10 10 10 10 10 10 10 10 10 10 10 10
CIG-- 250 220 200 200 200 11 250 250 -- -- -- 250
CoverSCTBKNBKNBKNBKNBKNBKNBKNBKNSCTSCTSCTBKN
FltCatVFRVFRVFRVFRVFRVFRMVFRVFRVFRVFRVFRVFRVFR
WX--------------------------
WDir2102100220240240250250240240230270270
WSpd6 5 6 7 7 7 5 5 6 10 8 10 8
WGst-- -- -- -- -- -- -- -- -- -- -- -- --
Raw hourly METARs
KIAH 230453Z 21006KT 10SM SCT250 29/23 A2989 RMK AO2 SLP121 T02940233
KIAH 230553Z 21005KT 10SM BKN250 28/23 A2988 RMK AO2 SLP115 T02830233 10361 20283 403780267 58003
KIAH 230653Z VRB06KT 10SM BKN220 28/24 A2986 RMK AO2 SLP111 T02780244
KIAH 230753Z 22007KT 10SM BKN200 28/26 A2986 RMK AO2 SLP109 T02780256
KIAH 230853Z 24007KT 10SM FEW010 BKN200 27/26 A2986 RMK AO2 SLP109 T02720256 55006
KIAH 230953Z 24007KT 10SM FEW010 BKN200 27/26 A2987 RMK AO2 SLP112 T02720256
KIAH 231103Z 25005KT 10SM BKN011 BKN200 27/25 A2988 RMK AO2 T02720250
KIAH 231153Z 25005KT 10SM SCT012 BKN250 27/25 A2989 RMK AO2 SLP120 T02670250 10283 20267 51012
KIAH 231253Z 24006KT 10SM FEW012 BKN250 27/25 A2990 RMK AO2 SLP125 T02720250
KIAH 231353Z 24010KT 10SM FEW015 SCT190 SCT250 28/23 A2990 RMK AO2 SLP124 VIRGA OHD T02830233
KIAH 231453Z 23008KT 10SM SCT190 SCT250 31/23 A2991 RMK AO2 SLP128 VIRGA SE T03060233 51008
KIAH 231553Z 27010KT 10SM SCT190 SCT250 32/23 A2992 RMK AO2 SLP129 T03220233
KIAH 231653Z 27008KT 10SM SCT190 BKN250 34/23 A2991 RMK AO2 SLP127 T03390228



Page loaded:  17:12 UTC  |   10:12 AM Pacific  |   11:12 AM Mountain  |   12:12 PM Central  |   01:12 PM Eastern

 

ADVISORIES

FORECASTS

FORECASTS

OBSERVATIONS

USER TOOLS

ABOUT US